Time;durP1;ratioP1;P1;durP2;ratioP2;P2;SDS_P1;SDS_P2;PMS_P1;PMS_P2;Temp;Humidity;BMP_temperature;BMP_pressure;BME280_temperature;BME280_humidity;BME280_pressure;Samples;Min_cycle;Max_cycle;Signal;HPM_P1;HPM_P2
2022/11/05 00:10:23;;;;;;;7.63;2.72;;;;;;;15.98;100.00;101263.25;2088104;28;20055;-75
2022/11/05 00:16:47;;;;;;;8.38;3.50;;;;;;;15.85;100.00;101257.03;2089448;28;20574;-74
2022/11/05 00:18:08;;;;;;;7.50;3.50;;;;;;;15.82;100.00;101252.56;2099328;28;20404;-75
2022/11/05 00:19:31;;;;;;;9.35;3.67;;;;;;;15.78;100.00;101248.16;2097814;28;20576;-74
2022/11/05 00:20:54;;;;;;;10.65;3.67;;;;;;;15.77;100.00;101248.13;2095294;28;20049;-75
2022/11/05 00:25:54;;;;;;;19.55;7.35;;;;;;;15.56;100.00;101246.28;2051478;28;20055;-74
2022/11/05 00:27:16;;;;;;;11.48;5.68;;;;;;;15.45;100.00;101245.34;2087967;28;20048;-74
2022/11/05 00:28:42;;;;;;;13.07;6.10;;;;;;;15.37;100.00;101247.97;2095282;28;20776;-74
2022/11/05 00:30:04;;;;;;;16.45;7.05;;;;;;;15.23;100.00;101240.84;2083503;28;20049;-75
2022/11/05 00:31:27;;;;;;;17.23;7.38;;;;;;;15.01;100.00;101242.50;2084289;28;20473;-74
2022/11/05 00:32:52;;;;;;;13.73;6.60;;;;;;;14.80;100.00;101245.03;2100945;28;20143;-75
2022/11/05 00:34:15;;;;;;;12.43;5.65;;;;;;;14.62;100.00;101240.50;2097707;28;20385;-75
2022/11/05 00:35:38;;;;;;;15.15;6.18;;;;;;;14.46;100.00;101234.19;2098618;28;20131;-74
2022/11/05 00:36:59;;;;;;;10.30;4.25;;;;;;;14.36;100.00;101234.97;2090671;28;20073;-75
2022/11/05 00:38:22;;;;;;;10.18;3.78;;;;;;;14.35;100.00;101235.84;2103404;28;20052;-74
2022/11/05 00:39:44;;;;;;;11.20;3.90;;;;;;;14.33;100.00;101234.94;2092220;28;20113;-74
2022/11/05 00:41:06;;;;;;;12.27;4.18;;;;;;;14.32;100.00;101227.84;2095121;28;20053;-75
2022/11/05 00:45:48;;;;;;;10.50;4.45;;;;;;;14.55;100.00;101230.72;2097642;28;20075;-74
2022/11/05 00:50:32;;;;;;;8.68;3.47;;;;;;;14.82;100.00;101233.56;2089771;28;20131;-74
2022/11/05 00:52:54;;;;;;;6.93;3.47;;;;;;;14.87;100.00;101234.47;2092022;28;20075;-74
2022/11/05 00:53:39;;;;;;;8.30;3.38;;;;;;;14.91;100.00;101228.25;2101049;28;20143;-73
2022/11/05 00:55:00;;;;;;;7.28;3.40;;;;;;;14.96;100.00;101225.66;2089396;28;20045;-74
2022/11/05 00:56:23;;;;;;;8.27;3.13;;;;;;;15.02;100.00;101223.91;2087891;28;20392;-74
2022/11/05 00:57:44;;;;;;;8.07;4.05;;;;;;;15.07;100.00;101229.25;2094700;28;20036;-73
2022/11/05 00:59:07;;;;;;;10.45;3.95;;;;;;;15.03;100.00;101224.81;2103384;28;20117;-74
2022/11/05 01:00:30;;;;;;;10.80;4.22;;;;;;;15.00;100.00;101223.00;2091660;28;20105;-73
2022/11/05 01:01:53;;;;;;;10.55;5.50;;;;;;;14.95;100.00;101223.88;2095250;28;20400;-74
2022/11/05 01:03:17;;;;;;;10.50;5.60;;;;;;;14.92;100.00;101222.06;2090132;28;20080;-73
2022/11/05 01:04:40;;;;;;;18.50;6.97;;;;;;;14.88;100.00;101224.72;2103049;28;20048;-74
2022/11/05 01:06:07;;;;;;;11.25;4.85;;;;;;;14.84;100.00;101217.59;2097671;28;20086;-74
2022/11/05 01:07:28;;;;;;;13.27;4.90;;;;;;;14.84;100.00;101218.47;2097446;28;20153;-74
2022/11/05 01:08:51;;;;;;;8.40;4.20;;;;;;;14.87;100.00;101218.50;2102966;28;20044;-74
2022/11/05 01:10:12;;;;;;;11.07;4.70;;;;;;;14.94;100.00;101215.00;2097633;28;20270;-74
2022/11/05 01:11:35;;;;;;;9.50;3.65;;;;;;;15.01;100.00;101215.91;2102145;28;20043;-73
2022/11/05 01:12:57;;;;;;;11.82;3.75;;;;;;;15.02;100.00;101215.94;2105957;28;20055;-74
2022/11/05 01:14:20;;;;;;;7.93;3.88;;;;;;;15.02;100.00;101217.69;2097609;28;20423;-74
2022/11/05 01:15:43;;;;;;;10.68;4.25;;;;;;;15.01;100.00;101211.50;2103319;28;20112;-74
2022/11/05 01:17:04;;;;;;;7.75;3.83;;;;;;;15.00;100.00;101209.72;2097418;28;20044;-74
2022/11/05 01:18:27;;;;;;;8.57;4.25;;;;;;;15.02;100.00;101205.31;2102909;28;20399;-74
2022/11/05 01:19:50;;;;;;;10.30;4.20;;;;;;;15.09;100.00;101212.44;2097232;28;20048;-74
2022/11/05 01:21:14;;;;;;;8.75;4.28;;;;;;;15.21;100.00;101210.69;2103075;28;20159;-74
2022/11/05 01:22:35;;;;;;;8.65;4.00;;;;;;;15.31;100.00;101210.72;2096914;28;20045;-75
2022/11/05 01:23:58;;;;;;;8.90;4.07;;;;;;;15.38;100.00;101209.84;2102850;28;20056;-74
2022/11/05 01:25:21;;;;;;;7.70;3.92;;;;;;;15.45;100.00;101213.41;2097565;28;20121;-75
2022/11/05 01:26:42;;;;;;;10.60;3.88;;;;;;;15.47;100.00;101216.97;2085775;28;20394;-74
2022/11/05 01:28:05;;;;;;;7.78;3.70;;;;;;;15.45;100.00;101209.00;2080810;28;20041;-74
2022/11/05 01:29:26;;;;;;;12.98;3.95;;;;;;;15.44;100.00;101203.66;2086452;28;20051;-76
2022/11/05 01:30:56;;;;;;;9.32;4.82;;;;;;;15.51;100.00;101213.44;2089079;28;20061;-75
2022/11/05 01:32:17;;;;;;;11.35;4.85;;;;;;;15.58;100.00;101209.06;2089046;28;20148;-74
2022/11/05 01:33:40;;;;;;;8.32;4.53;;;;;;;15.64;100.00;101209.94;2072755;28;20056;-75
2022/11/05 01:35:04;;;;;;;7.90;4.38;;;;;;;15.72;100.00;101209.97;2083868;28;20053;-75
2022/11/05 01:36:27;;;;;;;10.40;4.03;;;;;;;15.75;100.00;101213.50;2089036;28;20057;-76
2022/11/05 01:37:49;;;;;;;8.32;4.25;;;;;;;15.81;100.00;101220.66;2089195;28;20041;-75
2022/11/05 01:39:12;;;;;;;8.48;4.68;;;;;;;15.85;100.00;101220.66;2085286;28;20033;-75
2022/11/05 01:40:34;;;;;;;8.23;4.40;;;;;;;15.88;100.00;101214.44;2072476;28;20454;-75
2022/11/05 01:41:57;;;;;;;6.70;3.78;;;;;;;15.91;100.00;101217.09;2078483;28;20033;-75
2022/11/05 01:43:22;;;;;;;9.35;4.57;;;;;;;15.93;100.00;101212.66;2074901;28;20057;-74
2022/11/05 01:44:59;;;;;;;9.68;3.80;;;;;;;15.92;100.00;101218.88;2079098;28;20103;-74
2022/11/05 01:46:27;;;;;;;9.73;3.70;;;;;;;15.93;100.00;101208.25;2080211;28;20053;-74
2022/11/05 01:47:56;;;;;;;11.02;4.15;;;;;;;15.94;100.00;101212.69;2084922;28;20033;-74
2022/11/05 01:49:28;;;;;;;9.80;4.20;;;;;;;15.97;100.00;101210.88;2080574;28;20071;-74
2022/11/05 01:50:58;;;;;;;10.00;3.67;;;;;;;15.99;100.00;101209.13;2079201;28;20474;-74
2022/11/05 01:52:21;;;;;;;6.88;3.90;;;;;;;16.01;100.00;101204.69;2083053;28;20048;-74
2022/11/05 01:53:47;;;;;;;9.18;4.43;;;;;;;16.03;100.00;101194.91;2080228;28;20060;-74
2022/11/05 01:55:11;;;;;;;7.68;3.90;;;;;;;16.03;100.00;101197.56;2078379;28;20104;-74
2022/11/05 01:56:38;;;;;;;8.00;3.58;;;;;;;16.02;100.00;101193.13;2073617;28;20042;-74
2022/11/05 01:58:00;;;;;;;8.73;4.20;;;;;;;16.01;100.00;101194.03;2078634;28;20053;-74
2022/11/05 01:59:27;;;;;;;8.75;4.13;;;;;;;16.03;100.00;101192.25;2084386;28;20041;-74
2022/11/05 02:00:53;;;;;;;9.88;4.32;;;;;;;16.04;100.00;101194.91;2072214;28;20153;-74
2022/11/05 02:02:15;;;;;;;8.50;3.90;;;;;;;16.05;100.00;101195.81;2064292;28;20190;-75
2022/11/05 02:03:40;;;;;;;10.50;4.68;;;;;;;16.05;100.00;101190.47;2077995;28;20145;-74
2022/11/05 02:05:05;;;;;;;8.63;3.70;;;;;;;16.08;100.00;101203.81;2081567;28;20320;-75
2022/11/05 02:06:30;;;;;;;9.10;4.43;;;;;;;16.10;100.00;101202.00;2084494;28;20029;-75
2022/11/05 02:07:53;;;;;;;7.72;4.30;;;;;;;16.12;100.00;101200.25;2071864;28;20041;-75
2022/11/05 02:09:20;;;;;;;10.68;4.13;;;;;;;16.14;100.00;101203.81;2078118;28;20051;-74
2022/11/05 02:10:43;;;;;;;10.07;4.28;;;;;;;16.13;100.00;101202.03;2086034;28;20041;-75
2022/11/05 02:12:07;;;;;;;8.63;4.40;;;;;;;16.13;100.00;101207.34;2080442;28;20061;-75
2022/11/05 02:13:29;;;;;;;8.75;4.20;;;;;;;16.15;100.00;101213.53;2086549;28;20037;-74
2022/11/05 02:14:52;;;;;;;9.93;4.00;;;;;;;16.16;100.00;101210.88;2080125;28;20074;-75
2022/11/05 02:16:25;;;;;;;6.35;3.20;;;;;;;16.16;100.00;101208.22;2077847;28;20768;-75
2022/11/05 02:17:55;;;;;;;8.25;4.00;;;;;;;16.17;100.00;101206.47;2079168;28;20049;-74
2022/11/05 02:19:51;;;;;;;10.38;3.85;;;;;;;16.17;100.00;101207.34;2080614;28;20053;-74
2022/11/05 02:21:47;;;;;;;9.98;3.88;;;;;;;16.15;100.00;101205.56;2072429;28;20058;-74
2022/11/05 02:23:55;;;;;;;10.07;4.70;;;;;;;16.15;100.00;101198.47;2079930;28;20132;-74
2022/11/05 02:25:36;;;;;;;7.70;3.83;;;;;;;16.17;100.00;101201.13;2055407;28;20507;-75
2022/11/05 02:27:22;;;;;;;8.63;4.03;;;;;;;16.20;100.00;101193.16;2088487;28;20118;-75
2022/11/05 02:29:20;;;;;;;7.28;3.70;;;;;;;16.20;100.00;101202.03;2096350;28;20065;-74
2022/11/05 02:30:50;;;;;;;7.53;3.55;;;;;;;16.20;100.00;101201.13;2078821;28;20740;-74
2022/11/05 02:32:21;;;;;;;6.93;3.50;;;;;;;16.21;100.00;101195.78;2095368;28;20044;-74
2022/11/05 02:33:55;;;;;;;6.70;3.90;;;;;;;16.20;100.00;101202.03;2090493;28;20068;-75
2022/11/05 02:35:30;;;;;;;8.18;4.18;;;;;;;16.21;100.00;101205.59;2095423;28;20052;-74
2022/11/05 02:37:00;;;;;;;9.68;3.90;;;;;;;16.22;100.00;101210.00;2088603;28;20393;-75
2022/11/05 02:38:34;;;;;;;7.63;4.43;;;;;;;16.23;100.00;101207.34;2088605;28;20053;-75
2022/11/05 02:40:06;;;;;;;8.52;4.57;;;;;;;16.22;100.00;101205.56;2095908;28;20588;-75
2022/11/05 02:41:38;;;;;;;6.22;3.80;;;;;;;16.20;100.00;101211.78;2096949;28;20476;-74
2022/11/05 02:43:14;;;;;;;8.85;4.07;;;;;;;16.21;100.00;101205.59;2098568;28;21506;-74
2022/11/05 02:44:45;;;;;;;9.30;4.78;;;;;;;16.19;100.00;101207.34;2096981;28;20439;-75
2022/11/05 02:46:19;;;;;;;8.88;4.28;;;;;;;16.17;100.00;101206.47;2086854;28;20095;-74
2022/11/05 02:47:44;;;;;;;11.00;4.95;;;;;;;16.15;100.00;101206.44;2095104;28;20136;-74
2022/11/05 02:49:18;;;;;;;7.97;4.25;;;;;;;16.15;100.00;101205.56;2080409;28;20069;-74
2022/11/05 02:50:50;;;;;;;9.35;4.57;;;;;;;16.14;100.00;101203.81;2080328;28;20128;-74
2022/11/05 02:52:18;;;;;;;7.13;3.83;;;;;;;16.16;100.00;101204.66;2096947;28;20052;-74
2022/11/05 02:53:51;;;;;;;9.82;4.15;;;;;;;16.18;100.00;101201.13;2096661;28;20080;-74
2022/11/05 02:55:21;;;;;;;8.98;3.65;;;;;;;16.19;100.00;101199.34;2087217;28;20041;-74
2022/11/05 02:56:47;;;;;;;8.00;4.22;;;;;;;16.20;100.00;101196.69;2100376;28;20055;-74
2022/11/05 02:58:11;;;;;;;8.57;3.80;;;;;;;16.23;100.00;101198.47;2095601;28;20083;-74
2022/11/05 02:59:34;;;;;;;6.93;3.47;;;;;;;16.24;100.00;101197.56;2094017;28;20135;-74
2022/11/05 03:00:56;;;;;;;9.20;3.25;;;;;;;16.25;100.00;101199.34;2086257;28;20128;-74
2022/11/05 03:02:20;;;;;;;9.07;3.95;;;;;;;16.30;100.00;101197.56;2094014;28;20143;-74
2022/11/05 03:03:46;;;;;;;7.55;3.22;;;;;;;16.31;100.00;101194.03;2096643;28;20105;-74
2022/11/05 03:05:09;;;;;;;8.20;3.80;;;;;;;16.31;100.00;101189.56;2090117;28;20056;-74
2022/11/05 03:06:47;;;;;;;10.50;4.45;;;;;;;16.34;100.00;101183.38;2093772;28;20033;-74
2022/11/05 03:08:16;;;;;;;10.93;3.67;;;;;;;16.33;100.00;101189.59;2089110;28;20077;-75
2022/11/05 03:10:01;;;;;;;7.20;3.85;;;;;;;16.31;100.00;101191.34;2103416;28;20052;-75
2022/11/05 03:11:27;;;;;;;7.75;3.35;;;;;;;16.31;100.00;101186.03;2104808;28;20056;-74
2022/11/05 03:13:02;;;;;;;7.65;3.85;;;;;;;16.29;100.00;101191.34;2096243;28;20462;-75
2022/11/05 03:14:38;;;;;;;9.38;4.07;;;;;;;16.26;100.00;101193.16;2095756;28;20109;-74
2022/11/05 03:16:08;;;;;;;9.57;4.63;;;;;;;16.23;100.00;101199.34;2096700;28;20477;-75
2022/11/05 03:17:38;;;;;;;8.57;3.80;;;;;;;16.21;100.00;101198.44;2088138;28;20151;-75
2022/11/05 03:19:09;;;;;;;10.75;4.90;;;;;;;16.19;100.00;101197.59;2094825;28;20933;-74
2022/11/05 03:20:35;;;;;;;9.80;5.18;;;;;;;16.18;100.00;101206.47;2096722;28;20056;-74
2022/11/05 03:22:03;;;;;;;9.38;4.68;;;;;;;16.18;100.00;101200.25;2088659;28;20516;-74
2022/11/05 03:23:31;;;;;;;13.25;4.78;;;;;;;16.16;100.00;101208.22;2094527;28;20187;-74
2022/11/05 03:24:57;;;;;;;7.40;4.25;;;;;;;16.15;100.00;101210.88;2098169;28;20041;-74
2022/11/05 03:26:25;;;;;;;9.82;4.60;;;;;;;16.11;100.00;101206.47;2096521;28;20055;-74
2022/11/05 03:27:53;;;;;;;9.40;4.38;;;;;;;16.12;100.00;101205.56;2083136;28;20095;-74
2022/11/05 03:29:18;;;;;;;7.35;4.15;;;;;;;16.10;100.00;101207.34;2100734;28;20492;-74
2022/11/05 03:30:42;;;;;;;8.07;4.80;;;;;;;16.08;100.00;101206.47;2088207;28;20467;-74
2022/11/05 03:32:06;;;;;;;16.52;5.03;;;;;;;16.05;100.00;101203.78;2099575;28;20152;-75
2022/11/05 03:33:32;;;;;;;8.45;4.68;;;;;;;16.06;100.00;101210.91;2096447;28;20081;-74
2022/11/05 03:35:01;;;;;;;9.68;5.00;;;;;;;16.05;100.00;101215.34;2102479;28;20114;-75
2022/11/05 03:36:28;;;;;;;8.60;4.38;;;;;;;16.02;100.00;101210.00;2104366;28;20052;-74
2022/11/05 03:37:53;;;;;;;9.57;4.32;;;;;;;16.01;100.00;101208.25;2096302;28;20101;-74
2022/11/05 03:39:20;;;;;;;9.07;4.82;;;;;;;16.01;100.00;101215.34;2103417;28;20036;-74
2022/11/05 03:40:45;;;;;;;10.50;4.95;;;;;;;16.00;100.00;101222.44;2104912;28;20055;-74
2022/11/05 03:42:13;;;;;;;10.18;4.75;;;;;;;15.99;100.00;101217.09;2087163;28;20044;-74
2022/11/05 03:43:40;;;;;;;13.52;4.82;;;;;;;15.99;100.00;101222.44;2087135;28;20065;-74
2022/11/05 03:45:08;;;;;;;11.40;5.15;;;;;;;15.98;100.00;101220.66;2096394;28;20094;-75
2022/11/05 03:46:34;;;;;;;10.13;5.28;;;;;;;15.99;100.00;101227.75;2081032;28;20049;-74
2022/11/05 03:47:58;;;;;;;8.77;4.43;;;;;;;15.98;100.00;101224.22;2100155;28;20055;-74
2022/11/05 03:49:28;;;;;;;10.43;4.82;;;;;;;15.98;100.00;101228.66;2104830;28;20052;-74
2022/11/05 03:50:55;;;;;;;10.48;5.30;;;;;;;15.98;100.00;101223.31;2085257;28;20041;-74
2022/11/05 03:52:20;;;;;;;9.50;5.10;;;;;;;15.94;100.00;101219.78;2099407;28;20443;-74
2022/11/05 03:53:46;;;;;;;11.68;4.93;;;;;;;15.91;100.00;101222.44;2087599;28;20045;-74
2022/11/05 03:55:07;;;;;;;9.10;4.60;;;;;;;15.89;100.00;101230.41;2092448;28;20710;-74
2022/11/05 03:56:36;;;;;;;8.57;4.35;;;;;;;15.88;100.00;101227.75;2093435;28;20043;-74
2022/11/05 03:57:58;;;;;;;10.95;4.53;;;;;;;15.84;100.00;101223.28;2102975;28;20052;-74
2022/11/05 03:59:23;;;;;;;6.85;4.00;;;;;;;15.83;100.00;101221.50;2085910;28;20052;-74
2022/11/05 04:00:44;;;;;;;9.80;4.70;;;;;;;15.84;100.00;101228.63;2091490;28;20531;-74
2022/11/05 04:02:07;;;;;;;9.20;4.60;;;;;;;15.83;100.00;101224.19;2088124;28;20096;-74
2022/11/05 04:03:34;;;;;;;9.88;4.65;;;;;;;15.82;100.00;101217.06;2090341;28;20139;-75
2022/11/05 04:04:57;;;;;;;11.35;4.15;;;;;;;15.80;100.00;101226.84;2086084;28;20052;-74
2022/11/05 04:14:34;;;;;;;8.45;4.10;;;;;;;15.79;100.00;101219.75;2089985;28;20056;-74
2022/11/05 04:17:52;;;;;;;8.50;4.00;;;;;;;15.86;100.00;101221.53;2087535;28;20059;-74
2022/11/05 04:24:06;;;;;;;12.32;4.82;;;;;;;15.92;100.00;101221.53;2079141;28;20617;-75
2022/11/05 04:24:22;;;;;;;12.45;4.85;;;;;;;15.89;100.00;101210.88;2062826;28;20054;-74
2022/11/05 04:25:44;;;;;;;11.68;3.83;;;;;;;15.88;100.00;101217.97;2072026;28;20163;-74
2022/11/05 04:27:10;;;;;;;7.47;4.03;;;;;;;15.88;100.00;101214.44;2093678;28;20087;-75
2022/11/05 04:30:21;;;;;;;9.63;4.00;;;;;;;15.88;100.00;101214.44;2096299;28;20086;-73
2022/11/05 04:31:42;;;;;;;7.10;3.42;;;;;;;15.92;100.00;101219.78;2095211;28;20131;-75
2022/11/05 04:33:07;;;;;;;5.20;3.20;;;;;;;15.98;100.00;101215.31;2094131;28;20814;-75
2022/11/05 04:34:30;;;;;;;9.23;3.80;;;;;;;16.02;100.00;101217.09;2104274;28;20040;-75
2022/11/05 04:35:53;;;;;;;7.47;4.07;;;;;;;16.02;100.00;101211.78;2096047;28;20032;-75
2022/11/05 04:37:16;;;;;;;8.85;3.67;;;;;;;16.03;100.00;101214.44;2096433;28;20065;-74
2022/11/05 04:38:39;;;;;;;8.13;3.80;;;;;;;16.03;100.00;101209.13;2095837;28;20060;-74
2022/11/05 04:40:00;;;;;;;10.43;3.70;;;;;;;16.04;100.00;101208.22;2093794;28;20060;-75
2022/11/05 04:41:23;;;;;;;8.07;3.75;;;;;;;16.07;100.00;101213.56;2096306;28;20040;-74
2022/11/05 04:42:44;;;;;;;6.10;3.10;;;;;;;16.11;100.00;101209.13;2087682;28;20421;-75
2022/11/05 04:44:07;;;;;;;11.45;5.15;;;;;;;16.13;100.00;101213.56;2079977;28;20329;-74
2022/11/05 04:45:31;;;;;;;8.20;4.05;;;;;;;16.17;100.00;101218.00;2091964;28;20056;-74
2022/11/05 04:46:53;;;;;;;10.10;3.67;;;;;;;16.20;100.00;101212.69;2088012;28;20065;-76
2022/11/05 04:48:15;;;;;;;8.98;4.47;;;;;;;16.21;100.00;101208.25;2094298;28;20063;-75
2022/11/05 04:49:38;;;;;;;11.40;4.65;;;;;;;16.24;100.00;101216.22;2087952;28;20603;-76
2022/11/05 04:51:01;;;;;;;8.40;4.18;;;;;;;16.25;100.00;101210.00;2096925;28;20831;-75
2022/11/05 04:52:25;;;;;;;8.15;4.30;;;;;;;16.26;100.00;101217.13;2096206;28;20172;-74
2022/11/05 04:53:48;;;;;;;13.35;4.35;;;;;;;16.29;100.00;101211.78;2091454;28;20571;-74
2022/11/05 04:55:10;;;;;;;12.13;4.32;;;;;;;16.29;100.00;101214.44;2085501;28;20049;-74
2022/11/05 04:56:33;;;;;;;8.60;4.00;;;;;;;16.31;100.00;101218.00;2085159;28;20080;-74
2022/11/05 04:57:56;;;;;;;10.43;3.65;;;;;;;16.32;100.00;101222.44;2097131;28;20052;-75
2022/11/05 04:59:19;;;;;;;10.65;4.15;;;;;;;16.35;100.00;101230.41;2105927;28;20047;-74
2022/11/05 05:00:42;;;;;;;9.20;4.30;;;;;;;16.35;100.00;101228.66;2104529;28;20104;-74
2022/11/05 05:02:05;;;;;;;11.52;4.60;;;;;;;16.36;100.00;101232.19;2105861;28;20389;-74
2022/11/05 05:03:26;;;;;;;8.35;4.05;;;;;;;16.33;100.00;101227.78;2097023;28;20528;-74
2022/11/05 05:04:48;;;;;;;9.45;3.78;;;;;;;16.31;100.00;101234.88;2099759;28;20040;-74
2022/11/05 05:06:10;;;;;;;14.23;4.43;;;;;;;16.31;100.00;101231.31;2089344;28;20045;-74
2022/11/05 05:07:34;;;;;;;7.07;3.78;;;;;;;16.30;100.00;101221.56;2099210;28;20542;-74
2022/11/05 05:08:56;;;;;;;10.43;3.67;;;;;;;16.30;100.00;101225.09;2094977;28;20444;-74
2022/11/05 05:10:19;;;;;;;8.00;3.28;;;;;;;16.30;100.00;101221.56;2094354;28;20084;-74
2022/11/05 05:11:40;;;;;;;7.32;4.03;;;;;;;16.31;100.00;101215.34;2089191;28;20048;-74
2022/11/05 05:13:03;;;;;;;8.05;3.17;;;;;;;16.34;100.00;101218.00;2094958;28;20135;-74
2022/11/05 05:14:24;;;;;;;8.27;3.35;;;;;;;16.38;100.00;101221.56;2089487;28;20082;-74
2022/11/05 05:15:47;;;;;;;7.40;2.95;;;;;;;16.40;100.00;101220.66;2094764;28;20048;-74
2022/11/05 05:17:09;;;;;;;6.82;3.00;;;;;;;16.40;100.00;101217.13;2089199;28;20045;-74
2022/11/05 05:18:32;;;;;;;7.45;3.03;;;;;;;16.42;100.00;101224.19;2094715;28;20495;-74
2022/11/05 05:21:39;;;;;;;10.20;3.47;;;;;;;16.46;100.00;101225.09;2097590;28;20045;-74
2022/11/05 05:23:03;;;;;;;6.95;3.30;;;;;;;16.49;100.00;101223.31;2095619;28;20041;-74
2022/11/05 05:24:26;;;;;;;11.80;3.70;;;;;;;16.52;100.00;101231.31;2091921;28;20056;-74
2022/11/05 05:25:49;;;;;;;6.95;3.63;;;;;;;16.55;100.00;101230.41;2086523;28;20045;-74
2022/11/05 05:27:11;;;;;;;7.47;3.60;;;;;;;16.62;100.00;101232.19;2086668;28;20060;-75
2022/11/05 05:28:34;;;;;;;9.63;3.08;;;;;;;16.74;100.00;101235.72;2094286;28;20093;-74
2022/11/05 05:29:57;;;;;;;7.85;2.88;;;;;;;16.90;100.00;101233.94;2103258;28;20036;-74
2022/11/05 05:31:19;;;;;;;14.68;4.78;;;;;;;17.11;100.00;101227.66;2088845;28;20053;-74
2022/11/05 05:32:42;;;;;;;6.45;3.00;;;;;;;17.31;100.00;101230.22;2089131;28;20096;-74
2022/11/05 05:34:06;;;;;;;7.65;3.40;;;;;;;17.51;100.00;101226.56;2086645;28;20136;-74
2022/11/05 05:35:27;;;;;;;7.40;3.65;;;;;;;17.71;100.00;101230.94;2094737;28;20136;-74
2022/11/05 05:36:50;;;;;;;10.80;3.78;;;;;;;17.87;100.00;101240.63;2089030;28;20041;-74
2022/11/05 05:38:13;;;;;;;9.15;4.13;;;;;;;18.03;100.00;101233.41;2094525;28;20145;-74
2022/11/05 05:39:35;;;;;;;6.15;2.75;;;;;;;18.15;100.00;101244.88;2080736;28;20493;-75
2022/11/05 05:41:00;;;;;;;7.80;3.50;;;;;;;18.28;100.00;101243.00;2090762;28;20043;-74
2022/11/05 05:42:28;;;;;;;8.50;3.55;;;;;;;18.41;100.00;101241.09;2088883;28;20045;-74
2022/11/05 05:43:50;;;;;;;7.47;3.00;;;;;;;18.53;100.00;101249.00;2091679;28;20068;-74
2022/11/05 05:45:19;;;;;;;6.65;3.30;;;;;;;18.66;100.00;101248.03;2088721;28;20076;-74
2022/11/05 05:46:44;;;;;;;7.60;3.08;;;;;;;18.78;100.00;101257.69;2094101;28;20040;-74
2022/11/05 05:48:10;;;;;;;8.40;3.33;;;;;;;18.88;100.00;101252.25;2095364;28;20040;-74
2022/11/05 05:49:34;;;;;;;10.63;3.47;;;;;;;19.00;100.00;101257.47;2094538;28;20061;-74
2022/11/05 05:51:00;;;;;;;12.52;3.63;;;;;;;19.11;100.00;101246.63;2086649;28;20040;-75
2022/11/05 05:52:24;;;;;;;8.85;2.63;;;;;;;19.20;100.00;101242.97;2092925;28;20404;-74
2022/11/05 05:53:48;;;;;;;10.77;3.75;;;;;;;19.29;100.00;101248.22;2087516;28;20483;-75
2022/11/05 05:55:11;;;;;;;5.45;2.80;;;;;;;19.40;100.00;101255.22;2092832;28;20049;-74
2022/11/05 05:56:32;;;;;;;7.35;3.08;;;;;;;19.48;100.00;101249.81;2094741;28;20143;-75
2022/11/05 05:57:55;;;;;;;10.80;3.35;;;;;;;19.57;100.00;101260.38;2094398;28;20072;-74
2022/11/05 05:59:16;;;;;;;9.40;3.65;;;;;;;19.67;100.00;101259.34;2092537;28;20455;-75
2022/11/05 06:00:39;;;;;;;7.20;3.08;;;;;;;19.74;100.00;101255.69;2089320;28;20473;-74
2022/11/05 06:02:01;;;;;;;8.88;3.35;;;;;;;19.84;100.00;101260.00;2099314;28;20040;-75
2022/11/05 06:03:23;;;;;;;8.18;3.63;;;;;;;19.97;100.00;101243.72;2097104;28;20438;-75
2022/11/05 06:04:45;;;;;;;8.25;3.60;;;;;;;20.05;100.00;101263.28;2102461;28;20044;-74
2022/11/05 06:06:08;;;;;;;5.60;2.78;;;;;;;20.15;100.00;101264.91;2105462;28;20044;-75
2022/11/05 06:07:31;;;;;;;10.80;4.20;;;;;;;20.23;100.00;101268.34;2097273;28;20075;-74
2022/11/05 06:08:56;;;;;;;8.77;5.22;;;;;;;20.31;100.00;101266.41;2102351;28;20131;-74
2022/11/05 06:10:18;;;;;;;7.28;3.17;;;;;;;20.37;100.00;101266.34;2093433;28;20037;-74
2022/11/05 06:11:40;;;;;;;8.20;3.75;;;;;;;20.45;100.00;101267.13;2094904;28;20083;-75
2022/11/05 06:13:02;;;;;;;9.15;3.30;;;;;;;20.52;100.00;101267.91;2091851;28;20072;-74
2022/11/05 06:14:25;;;;;;;7.25;3.47;;;;;;;20.60;100.00;101274.03;2096800;28;20479;-74
2022/11/05 06:15:46;;;;;;;9.13;3.55;;;;;;;20.67;100.00;101278.38;2096031;28;20044;-74
2022/11/05 06:17:09;;;;;;;13.52;3.45;;;;;;;20.75;100.00;101267.47;2088702;28;20065;-74
2022/11/05 06:18:32;;;;;;;9.98;3.75;;;;;;;20.80;100.00;101266.50;2094312;28;20036;-74
2022/11/05 06:19:55;;;;;;;8.15;2.88;;;;;;;20.85;100.00;101253.88;2088865;28;20037;-75
2022/11/05 06:21:18;;;;;;;13.10;4.53;;;;;;;20.91;100.00;101255.56;2085888;28;20074;-75
2022/11/05 06:22:41;;;;;;;10.30;3.75;;;;;;;20.97;100.00;101259.00;2086350;28;20041;-74
2022/11/05 06:24:06;;;;;;;9.50;3.67;;;;;;;21.06;100.00;101260.66;2077947;28;20057;-74
2022/11/05 06:25:29;;;;;;;8.93;3.88;;;;;;;21.13;100.00;101258.72;2091943;28;20063;-74
2022/11/05 06:26:52;;;;;;;7.53;3.10;;;;;;;21.19;100.00;101253.25;2096957;28;20053;-75
2022/11/05 06:28:13;;;;;;;10.95;3.17;;;;;;;21.26;100.00;101258.47;2099920;28;20470;-74
2022/11/05 06:29:36;;;;;;;8.25;3.40;;;;;;;21.29;100.00;101261.09;2079458;28;20437;-75
2022/11/05 06:31:00;;;;;;;7.63;3.60;;;;;;;21.33;100.00;101257.41;2093394;28;20044;-74
2022/11/05 06:32:22;;;;;;;7.18;3.15;;;;;;;21.35;100.00;101252.00;2095828;28;20056;-74
2022/11/05 06:33:46;;;;;;;9.20;3.42;;;;;;;21.40;100.00;101247.41;2096707;28;20076;-75
2022/11/05 06:35:09;;;;;;;7.78;3.05;;;;;;;21.47;100.00;101244.59;2092395;28;20078;-74
2022/11/05 06:36:31;;;;;;;8.30;3.10;;;;;;;21.56;100.00;101243.50;2094409;28;20063;-75
2022/11/05 06:37:52;;;;;;;9.45;3.22;;;;;;;21.61;100.00;101241.59;2088546;28;20622;-75
2022/11/05 06:39:17;;;;;;;10.13;3.22;;;;;;;21.68;100.00;101242.34;2085857;28;20613;-75
2022/11/05 06:40:38;;;;;;;6.95;2.47;;;;;;;21.74;99.40;101239.50;2094825;28;20048;-75
2022/11/05 06:42:01;;;;;;;7.60;2.78;;;;;;;21.82;98.72;101241.13;2096877;28;20080;-75
2022/11/05 06:43:23;;;;;;;7.32;3.35;;;;;;;21.92;96.61;101233.75;2087122;28;20036;-74
2022/11/05 06:44:46;;;;;;;6.35;2.80;;;;;;;22.00;93.61;101228.19;2099890;28;20527;-75
2022/11/05 06:46:11;;;;;;;7.15;2.80;;;;;;;22.01;92.36;101225.47;2088437;28;20040;-74
2022/11/05 06:47:34;;;;;;;2.95;1.95;;;;;;;22.03;92.04;101229.00;2092352;28;20044;-74
2022/11/05 06:48:56;;;;;;;10.02;3.70;;;;;;;22.14;92.06;101223.34;2093794;28;20523;-75
2022/11/05 06:50:18;;;;;;;7.10;3.00;;;;;;;22.16;91.03;101225.09;2093564;28;20135;-74
2022/11/05 06:51:41;;;;;;;7.13;3.03;;;;;;;22.21;91.24;101227.66;2094449;28;20055;-75
2022/11/05 06:53:04;;;;;;;6.43;2.53;;;;;;;22.30;91.42;101221.19;2086176;28;20064;-75
2022/11/05 06:54:27;;;;;;;9.10;3.03;;;;;;;22.31;90.82;101214.88;2077216;28;20494;-74
2022/11/05 06:55:50;;;;;;;7.45;2.80;;;;;;;22.33;91.35;101219.28;2108070;28;20486;-74
2022/11/05 06:57:12;;;;;;;6.20;3.05;;;;;;;22.38;91.14;101212.00;2104974;28;20482;-74
2022/11/05 06:58:35;;;;;;;8.48;3.20;;;;;;;22.41;90.69;101217.28;2101972;28;20044;-75
2022/11/05 06:59:57;;;;;;;6.22;2.55;;;;;;;22.46;90.88;101214.47;2094976;28;20500;-75
2022/11/05 07:01:20;;;;;;;7.43;2.70;;;;;;;22.55;91.18;101208.84;2101403;28;20142;-74
2022/11/05 07:02:42;;;;;;;6.72;2.28;;;;;;;22.59;90.05;101207.84;2093911;28;20048;-75
2022/11/05 07:04:05;;;;;;;9.25;3.08;;;;;;;22.64;90.16;101214.00;2099965;28;20464;-75
2022/11/05 07:05:27;;;;;;;6.32;2.97;;;;;;;22.71;90.13;101214.72;2102386;28;20101;-74
2022/11/05 07:06:50;;;;;;;4.75;2.63;;;;;;;22.71;90.64;101210.19;2096583;28;20496;-74
2022/11/05 07:08:12;;;;;;;7.00;2.90;;;;;;;22.74;90.56;101210.16;2094007;28;20049;-74
2022/11/05 07:09:39;;;;;;;6.22;3.03;;;;;;;22.75;89.95;101201.16;2099195;28;20040;-75
2022/11/05 07:11:01;;;;;;;8.55;2.35;;;;;;;22.78;88.92;101221.72;2096407;28;20879;-74
2022/11/05 07:12:23;;;;;;;9.02;3.08;;;;;;;22.82;89.17;101194.69;2096710;28;20147;-74